Terminal Aerodrome Forecast
Issued by NWS Jackson, MS

Home | Current Version | Previous Version | Text Only | Print | Product List | Glossary On
Versions: 1 2 3 4 5 6 7 8 9 10 11 12 13 14 15 16 17 18 19
000
FTUS44 KJAN 220500
TAFJAN
TAF
KJAN 220540Z 2206/2306 06004KT P6SM FEW050 OVC070
     FM220900 02003KT 4SM BR SKC
     FM221300 04005KT P6SM SCT050
     FM222000 05005KT P6SM VCTS SCT050CB BKN150
     FM230000 VRB03KT P6SM SCT100=

USA.gov is the U.S. government's official web portal to all federal, state and local government web resources and services.